createdAt,value
2022-12-12T00:00:12.350Z,0.40
2022-12-12T00:02:29.599Z,0.38
2022-12-12T00:04:46.800Z,0.40
2022-12-12T00:07:03.916Z,0.40
2022-12-12T00:09:21.174Z,0.41
2022-12-12T00:11:41.651Z,0.43
2022-12-12T00:13:58.737Z,0.42
2022-12-12T00:16:15.847Z,0.42
2022-12-12T00:18:33.079Z,0.44
2022-12-12T00:20:50.438Z,0.42
2022-12-12T00:23:07.513Z,0.40
2022-12-12T00:25:24.585Z,0.39
2022-12-12T00:27:41.663Z,0.37
2022-12-12T00:29:59.714Z,0.34
2022-12-12T00:32:17.095Z,0.34
2022-12-12T00:34:34.208Z,0.33
2022-12-12T00:36:51.358Z,0.32
2022-12-12T00:39:09.787Z,0.32
2022-12-12T00:41:29.640Z,0.32
2022-12-12T00:43:46.603Z,0.31
2022-12-12T00:46:03.712Z,0.33
2022-12-12T00:48:20.722Z,0.32
2022-12-12T00:50:37.767Z,0.30
2022-12-12T00:52:54.694Z,0.27
2022-12-12T00:55:11.891Z,0.24
2022-12-12T00:57:29.945Z,0.21
2022-12-12T00:59:47.354Z,0.20
2022-12-12T01:02:04.694Z,0.20
2022-12-12T01:04:21.697Z,0.17
2022-12-12T01:06:38.647Z,0.19
2022-12-12T01:08:55.623Z,0.19
2022-12-12T01:11:13.915Z,0.19
2022-12-12T01:13:30.994Z,0.19
2022-12-12T01:15:49.360Z,0.15
2022-12-12T01:18:11.669Z,0.15
2022-12-12T01:20:29.644Z,0.14
2022-12-12T01:22:47.497Z,0.12
2022-12-12T01:25:04.489Z,0.14
2022-12-12T01:27:24.020Z,0.12
2022-12-12T01:29:41.129Z,0.08
2022-12-12T01:31:58.500Z,0.10
2022-12-12T01:34:16.855Z,0.09
2022-12-12T01:36:35.893Z,0.03
2022-12-12T01:38:53.175Z,0.03
2022-12-12T01:41:10.538Z,0.02
2022-12-12T01:43:27.461Z,-0.01
2022-12-12T01:45:44.441Z,-0.01
2022-12-12T01:48:05.371Z,-0.02
2022-12-12T01:50:23.047Z,-0.02
2022-12-12T01:52:40.017Z,-0.05
2022-12-12T01:54:57.155Z,-0.04
2022-12-12T01:57:14.122Z,-0.05
2022-12-12T01:59:31.420Z,-0.07
2022-12-12T02:01:48.661Z,-0.05
2022-12-12T02:04:06.102Z,-0.06
2022-12-12T02:06:23.188Z,-0.11
2022-12-12T02:08:40.142Z,-0.15
2022-12-12T02:10:57.508Z,-0.19
2022-12-12T02:13:14.388Z,-0.23
2022-12-12T02:15:31.274Z,-0.26
2022-12-12T02:17:48.220Z,-0.28
2022-12-12T02:20:05.106Z,-0.31
2022-12-12T02:22:22.333Z,-0.31
2022-12-12T02:24:39.318Z,-0.34
2022-12-12T02:26:56.555Z,-0.36
2022-12-12T02:29:13.796Z,-0.36
2022-12-12T02:31:31.752Z,-0.38
2022-12-12T02:33:49.083Z,-0.41
2022-12-12T02:36:07.000Z,-0.46
2022-12-12T02:38:23.897Z,-0.50
2022-12-12T02:40:41.112Z,-0.56
2022-12-12T02:42:59.411Z,-0.64
2022-12-12T02:45:16.648Z,-0.71
2022-12-12T02:47:33.954Z,-0.82
2022-12-12T02:49:51.251Z,-0.87
2022-12-12T02:52:08.553Z,-0.93
2022-12-12T02:54:25.485Z,-1.01
2022-12-12T02:56:43.767Z,-1.07
2022-12-12T02:59:00.672Z,-1.13
2022-12-12T03:01:17.743Z,-1.16
2022-12-12T03:03:34.863Z,-1.21
2022-12-12T03:05:52.060Z,-1.25
2022-12-12T03:08:09.244Z,-1.29
2022-12-12T03:10:26.207Z,-1.34
2022-12-12T03:12:43.128Z,-1.36
2022-12-12T03:15:01.012Z,-1.42
2022-12-12T03:17:17.966Z,-1.45
2022-12-12T03:19:35.224Z,-1.48
2022-12-12T03:21:52.476Z,-1.53
2022-12-12T03:24:09.417Z,-1.57
2022-12-12T03:26:27.656Z,-1.60
2022-12-12T03:28:47.772Z,-1.64
2022-12-12T03:31:05.056Z,-1.70
2022-12-12T03:33:22.289Z,-1.74
2022-12-12T03:35:39.585Z,-1.73
2022-12-12T03:37:56.711Z,-1.79
2022-12-12T03:40:13.779Z,-1.83
2022-12-12T03:42:30.673Z,-1.86
2022-12-12T03:44:47.918Z,-1.88
2022-12-12T03:47:05.243Z,-1.92
2022-12-12T03:49:22.566Z,-1.95
2022-12-12T03:51:40.595Z,-1.98
2022-12-12T03:53:57.525Z,-1.99
2022-12-12T03:56:15.456Z,-2.02
2022-12-12T03:58:32.780Z,-2.05
2022-12-12T04:00:50.039Z,-2.09
2022-12-12T04:03:08.128Z,-2.14
2022-12-12T04:05:25.134Z,-2.15
2022-12-12T04:07:42.164Z,-2.16
2022-12-12T04:09:59.130Z,-2.18
2022-12-12T04:12:16.441Z,-2.22
2022-12-12T04:14:33.383Z,-2.27
2022-12-12T04:16:51.637Z,-2.30
2022-12-12T04:19:08.758Z,-2.32
2022-12-12T04:21:26.069Z,-2.34
2022-12-12T04:23:44.033Z,-2.40
2022-12-12T04:26:01.113Z,-2.41
2022-12-12T04:28:18.151Z,-2.42
2022-12-12T04:30:35.025Z,-2.45
2022-12-12T04:32:51.941Z,-2.49
2022-12-12T04:35:08.915Z,-2.51
2022-12-12T04:37:26.838Z,-2.55
2022-12-12T04:39:43.716Z,-2.60
2022-12-12T04:42:02.223Z,-2.61
2022-12-12T04:44:19.234Z,-2.61
2022-12-12T04:46:36.271Z,-2.68
2022-12-12T04:48:53.980Z,-2.69
2022-12-12T04:51:11.072Z,-2.74
2022-12-12T04:53:28.178Z,-2.78
2022-12-12T04:55:46.072Z,-2.83
2022-12-12T04:58:03.986Z,-2.84
2022-12-12T05:00:21.095Z,-2.84
2022-12-12T05:02:38.212Z,-2.85
2022-12-12T05:04:55.982Z,-2.89
2022-12-12T05:07:12.915Z,-2.91
2022-12-12T05:09:30.221Z,-2.92
2022-12-12T05:11:47.265Z,-2.97
2022-12-12T05:14:04.522Z,-2.99
2022-12-12T05:16:22.477Z,-2.99
2022-12-12T05:18:39.767Z,-3.04
2022-12-12T05:20:56.847Z,-3.09
2022-12-12T05:23:13.749Z,-3.13
2022-12-12T05:25:30.665Z,-3.15
2022-12-12T05:27:47.685Z,-3.18
2022-12-12T05:30:05.132Z,-3.17
2022-12-12T05:32:22.345Z,-3.14
2022-12-12T05:34:39.382Z,-3.25
2022-12-12T05:36:57.271Z,-3.31
2022-12-12T05:39:14.199Z,-3.37
2022-12-12T05:41:31.182Z,-3.42
2022-12-12T05:43:48.208Z,-3.46
2022-12-12T05:46:05.134Z,-3.46
2022-12-12T05:48:24.444Z,-3.49
2022-12-12T05:50:41.659Z,-3.51
2022-12-12T05:52:58.932Z,-3.52
2022-12-12T05:55:15.943Z,-3.52
2022-12-12T05:57:33.382Z,-3.57
2022-12-12T05:59:50.429Z,-3.61
2022-12-12T06:02:07.785Z,-3.63
2022-12-12T06:04:24.896Z,-3.69
2022-12-12T06:06:41.870Z,-3.71
2022-12-12T06:08:59.117Z,-3.74
2022-12-12T06:11:16.016Z,-3.78
2022-12-12T06:13:33.221Z,-3.81
2022-12-12T06:15:50.282Z,-3.81
2022-12-12T06:18:07.179Z,-3.86
2022-12-12T06:20:24.093Z,-3.87
2022-12-12T06:22:41.126Z,-3.90
2022-12-12T06:24:58.381Z,-3.94
2022-12-12T06:27:15.273Z,-3.97
2022-12-12T06:29:32.472Z,-3.99
2022-12-12T06:31:49.395Z,-3.95
2022-12-12T06:34:06.461Z,-3.97
2022-12-12T06:36:23.442Z,-3.96
2022-12-12T06:38:40.889Z,-3.98
2022-12-12T06:41:00.320Z,-3.99
2022-12-12T06:43:18.269Z,-4.00
2022-12-12T06:45:35.316Z,-4.00
2022-12-12T06:47:52.287Z,-4.02
2022-12-12T06:50:10.060Z,-4.03
2022-12-12T06:52:28.367Z,-4.05
2022-12-12T06:54:45.352Z,-4.08
2022-12-12T06:57:02.400Z,-4.14
2022-12-12T06:59:19.677Z,-4.16
2022-12-12T07:01:36.988Z,-4.17
2022-12-12T07:03:54.269Z,-4.16
2022-12-12T07:06:11.170Z,-4.18
2022-12-12T07:08:28.471Z,-4.23
2022-12-12T07:10:45.634Z,-4.24
2022-12-12T07:13:02.943Z,-4.27
2022-12-12T07:15:20.313Z,-4.29
2022-12-12T07:17:37.376Z,-4.26
2022-12-12T07:19:54.443Z,-4.25
2022-12-12T07:22:11.374Z,-4.32
2022-12-12T07:24:28.699Z,-4.36
2022-12-12T07:26:46.820Z,-4.34
2022-12-12T07:29:04.120Z,-4.38
2022-12-12T07:31:21.470Z,-4.42
2022-12-12T07:33:43.489Z,-4.48
2022-12-12T07:36:01.170Z,-4.51
2022-12-12T07:38:18.251Z,-4.55
2022-12-12T07:40:35.664Z,-4.55
2022-12-12T07:42:52.555Z,-4.57
2022-12-12T07:45:12.569Z,-4.57
2022-12-12T07:47:34.737Z,-4.61
2022-12-12T07:49:52.018Z,-4.61
2022-12-12T07:52:08.932Z,-4.58
2022-12-12T07:54:25.968Z,-4.58
2022-12-12T07:56:43.023Z,-4.58
2022-12-12T07:59:01.062Z,-4.61
2022-12-12T08:01:17.958Z,-4.61
2022-12-12T08:03:34.855Z,-4.59
2022-12-12T08:05:52.042Z,-4.56
2022-12-12T08:08:10.029Z,-4.51
2022-12-12T08:10:27.826Z,-4.50
2022-12-12T08:12:45.883Z,-4.54
2022-12-12T08:15:03.060Z,-4.58
2022-12-12T08:17:20.925Z,-4.58
2022-12-12T08:19:37.868Z,-4.61
2022-12-12T08:21:55.528Z,-4.61
2022-12-12T08:24:12.779Z,-4.62
2022-12-12T08:26:30.700Z,-4.62
2022-12-12T08:28:48.945Z,-4.60
2022-12-12T08:31:06.997Z,-4.56
2022-12-12T08:33:24.252Z,-4.54
2022-12-12T08:35:41.329Z,-4.52
2022-12-12T08:37:58.596Z,-4.52
2022-12-12T08:40:16.664Z,-4.52
2022-12-12T08:42:33.617Z,-4.48
2022-12-12T08:44:50.607Z,-4.43
2022-12-12T08:47:07.682Z,-4.40
2022-12-12T08:49:24.994Z,-4.38
2022-12-12T08:51:42.252Z,-4.37
2022-12-12T08:53:59.582Z,-4.35
2022-12-12T08:56:16.463Z,-4.31
2022-12-12T08:58:33.675Z,-4.25
2022-12-12T09:00:52.112Z,-4.21
2022-12-12T09:03:09.128Z,-4.14
2022-12-12T09:05:26.447Z,-4.08
2022-12-12T09:07:43.673Z,-4.00
2022-12-12T09:10:00.659Z,-3.93
2022-12-12T09:12:17.619Z,-3.87
2022-12-12T09:14:34.641Z,-3.79
2022-12-12T09:16:51.868Z,-3.78
2022-12-12T09:19:09.916Z,-3.72
2022-12-12T09:21:26.957Z,-3.67
2022-12-12T09:23:43.990Z,-3.57
2022-12-12T09:26:00.851Z,-3.50
2022-12-12T09:28:17.934Z,-3.49
2022-12-12T09:30:34.955Z,-3.45
2022-12-12T09:32:51.973Z,-3.42
2022-12-12T09:35:08.919Z,-3.33
2022-12-12T09:37:26.243Z,-3.29
2022-12-12T09:39:43.559Z,-3.24
2022-12-12T09:42:00.575Z,-2.87
2022-12-12T09:44:17.477Z,-2.19
2022-12-12T09:46:34.429Z,-1.44
2022-12-12T09:48:52.500Z,-0.76
2022-12-12T09:51:10.537Z,-0.70
2022-12-12T09:53:27.490Z,-0.95
2022-12-12T09:55:44.635Z,-1.14
2022-12-12T09:58:01.583Z,-1.36
2022-12-12T10:00:19.723Z,-1.56
2022-12-12T10:02:36.720Z,-1.74
2022-12-12T10:04:53.925Z,-1.81
2022-12-12T10:07:11.873Z,-1.86
2022-12-12T10:09:31.724Z,-1.94
2022-12-12T10:11:49.090Z,-1.89
2022-12-12T10:14:06.186Z,-1.85
2022-12-12T10:16:23.283Z,-1.76
2022-12-12T10:18:40.278Z,-1.76
2022-12-12T10:20:57.814Z,-1.79
2022-12-12T10:23:14.951Z,-1.84
2022-12-12T10:25:31.913Z,-1.79
2022-12-12T10:27:48.916Z,-1.77
2022-12-12T10:30:06.109Z,-1.73
2022-12-12T10:32:23.378Z,-1.65
2022-12-12T10:34:40.299Z,-1.54
2022-12-12T10:36:57.382Z,-1.47
2022-12-12T10:39:14.752Z,-1.36
2022-12-12T10:41:31.812Z,-1.26
2022-12-12T10:43:48.829Z,-1.19
2022-12-12T10:46:05.879Z,-1.14
2022-12-12T10:48:23.361Z,-1.07
2022-12-12T10:50:41.822Z,-0.99
2022-12-12T10:52:58.857Z,-0.91
2022-12-12T10:55:16.904Z,-0.82
2022-12-12T10:57:34.958Z,-0.78
2022-12-12T10:59:51.922Z,-0.72
2022-12-12T11:02:10.495Z,-0.68
2022-12-12T11:04:28.029Z,-0.61
2022-12-12T11:06:45.339Z,-0.51
2022-12-12T11:09:02.432Z,-0.56
2022-12-12T11:11:19.815Z,-0.56
2022-12-12T11:13:37.106Z,-0.55
2022-12-12T11:15:54.101Z,-0.54
2022-12-12T11:18:11.220Z,-0.51
2022-12-12T11:20:28.485Z,-0.56
2022-12-12T11:22:45.385Z,-0.51
2022-12-12T11:25:02.437Z,-0.45
2022-12-12T11:27:19.598Z,-0.41
2022-12-12T11:29:36.480Z,-0.40
2022-12-12T11:31:53.555Z,-0.35
2022-12-12T11:34:10.580Z,-0.33
2022-12-12T11:36:27.660Z,-0.28
2022-12-12T11:38:44.634Z,-0.25
2022-12-12T11:41:01.924Z,-0.20
2022-12-12T11:43:18.950Z,-0.15
2022-12-12T11:45:36.027Z,-0.08
2022-12-12T11:47:53.032Z,-0.05
2022-12-12T11:50:11.196Z,0.02
2022-12-12T11:52:28.438Z,0.01
2022-12-12T11:54:45.559Z,0.03
2022-12-12T11:57:03.525Z,0.05
2022-12-12T11:59:20.906Z,0.06
2022-12-12T12:01:38.020Z,0.06
2022-12-12T12:03:56.160Z,0.10
2022-12-12T12:06:13.588Z,0.11
2022-12-12T12:08:30.738Z,0.15
2022-12-12T12:10:47.821Z,0.17
2022-12-12T12:13:05.198Z,0.18
2022-12-12T12:15:22.586Z,0.20
2022-12-12T12:17:39.598Z,0.23
2022-12-12T12:19:56.893Z,0.25
2022-12-12T12:22:14.233Z,0.27
2022-12-12T12:24:32.477Z,0.26
2022-12-12T12:26:49.986Z,0.29
2022-12-12T12:29:07.023Z,0.28
2022-12-12T12:31:24.615Z,0.26
2022-12-12T12:33:41.812Z,0.29
2022-12-12T12:36:00.206Z,0.28
2022-12-12T12:38:17.294Z,0.30
2022-12-12T12:40:34.338Z,0.29
2022-12-12T12:42:51.312Z,0.32
2022-12-12T12:45:08.251Z,0.32
2022-12-12T12:47:25.439Z,0.32
2022-12-12T12:49:42.730Z,0.29
2022-12-12T12:51:59.763Z,0.25
2022-12-12T12:54:16.810Z,0.23
2022-12-12T12:56:35.560Z,0.25
2022-12-12T12:58:54.367Z,0.24
2022-12-12T13:01:11.720Z,0.22
2022-12-12T13:03:29.080Z,0.21
2022-12-12T13:05:46.006Z,0.17
2022-12-12T13:08:02.993Z,0.15
2022-12-12T13:10:20.254Z,0.16
2022-12-12T13:12:37.359Z,0.17
2022-12-12T13:14:54.611Z,0.17
2022-12-12T13:17:11.694Z,0.15
2022-12-12T13:19:28.947Z,0.14
2022-12-12T13:21:45.942Z,0.18
2022-12-12T13:24:02.960Z,0.20
2022-12-12T13:26:20.209Z,0.15
2022-12-12T13:28:37.164Z,0.12
2022-12-12T13:30:54.110Z,0.11
2022-12-12T13:33:11.160Z,0.09
2022-12-12T13:35:29.312Z,0.06
2022-12-12T13:37:46.249Z,0.07
2022-12-12T13:40:03.437Z,0.08
2022-12-12T13:42:20.317Z,0.06
2022-12-12T13:44:37.206Z,0.03
2022-12-12T13:46:54.207Z,0.00
2022-12-12T13:49:11.202Z,-0.03
2022-12-12T13:51:28.945Z,-0.09
2022-12-12T13:53:46.173Z,-0.15
2022-12-12T13:56:03.200Z,-0.16
2022-12-12T13:58:20.245Z,-0.20
2022-12-12T14:00:37.561Z,-0.25
2022-12-12T14:03:01.029Z,-0.31
2022-12-12T14:05:18.906Z,-0.32
2022-12-12T14:07:35.877Z,-0.32
2022-12-12T14:09:54.108Z,-0.36
2022-12-12T14:12:11.546Z,-0.36
2022-12-12T14:14:28.480Z,-0.40
2022-12-12T14:16:45.441Z,-0.41
2022-12-12T14:19:02.654Z,-0.45
2022-12-12T14:21:19.598Z,-0.48
2022-12-12T14:23:36.808Z,-0.52
2022-12-12T14:25:53.837Z,-0.58
2022-12-12T14:28:11.117Z,-0.59
2022-12-12T14:30:28.128Z,-0.65
2022-12-12T14:32:45.008Z,-0.69
2022-12-12T14:35:01.972Z,-0.75
2022-12-12T14:37:19.226Z,-0.88
2022-12-12T14:39:37.151Z,-0.94
2022-12-12T14:41:54.451Z,-0.98
2022-12-12T14:44:36.741Z,-0.96
2022-12-12T14:46:48.841Z,-0.99
2022-12-12T14:49:06.146Z,-1.13
2022-12-12T14:51:28.941Z,-1.20
2022-12-12T14:53:46.424Z,-1.36
2022-12-12T14:56:03.406Z,-1.36
2022-12-12T14:58:20.715Z,-1.34
2022-12-12T15:00:37.738Z,-1.36
2022-12-12T15:02:54.804Z,-1.47
2022-12-12T15:05:12.203Z,-1.53
2022-12-12T15:07:29.146Z,-1.54
2022-12-12T15:09:46.422Z,-1.62
2022-12-12T15:12:03.324Z,-1.68
2022-12-12T15:14:20.317Z,-1.77
2022-12-12T15:16:37.699Z,-1.78
2022-12-12T15:18:54.972Z,-1.82
2022-12-12T15:21:11.956Z,-1.88
2022-12-12T15:23:28.868Z,-1.93
2022-12-12T15:25:45.819Z,-2.05
2022-12-12T15:28:02.859Z,-2.12
2022-12-12T15:30:19.830Z,-2.12
2022-12-12T15:32:37.842Z,-2.15
2022-12-12T15:34:54.941Z,-2.21
2022-12-12T15:37:11.907Z,-2.22
2022-12-12T15:39:28.888Z,-2.26
2022-12-12T15:41:46.212Z,-2.32
2022-12-12T15:44:03.280Z,-2.43
2022-12-12T15:46:20.548Z,-2.49
2022-12-12T15:48:37.595Z,-2.53
2022-12-12T15:50:54.591Z,-2.58
2022-12-12T15:53:11.929Z,-2.53
2022-12-12T15:55:28.939Z,-2.60
2022-12-12T15:57:46.017Z,-2.62
2022-12-12T16:00:03.046Z,-2.68
2022-12-12T16:02:20.433Z,-2.72
2022-12-12T16:04:37.517Z,-2.76
2022-12-12T16:06:54.502Z,-2.78
2022-12-12T16:09:11.434Z,-2.80
2022-12-12T16:11:28.690Z,-2.84
2022-12-12T16:13:45.573Z,-2.93
2022-12-12T16:16:03.475Z,-2.92
2022-12-12T16:18:20.790Z,-2.94
2022-12-12T16:20:38.073Z,-2.97
2022-12-12T16:22:55.104Z,-3.01
2022-12-12T16:25:12.121Z,-3.04
2022-12-12T16:27:29.122Z,-3.08
2022-12-12T16:29:46.285Z,-3.11
2022-12-12T16:32:04.252Z,-3.14
2022-12-12T16:34:21.198Z,-3.16
2022-12-12T16:36:41.962Z,-3.18
2022-12-12T16:39:00.452Z,-3.20
2022-12-12T16:41:17.498Z,-3.22
2022-12-12T16:43:35.630Z,-3.25
2022-12-12T16:45:52.598Z,-3.29
2022-12-12T16:48:09.664Z,-3.31
2022-12-12T16:50:26.965Z,-3.35
2022-12-12T16:52:46.185Z,-3.39
2022-12-12T16:55:03.157Z,-3.40
2022-12-12T16:57:20.736Z,-3.42
2022-12-12T16:59:37.712Z,-3.44
2022-12-12T17:01:54.656Z,-3.47
2022-12-12T17:04:12.054Z,-3.50
2022-12-12T17:06:29.093Z,-3.51
2022-12-12T17:08:45.981Z,-3.54
2022-12-12T17:11:09.874Z,-3.55
2022-12-12T17:13:27.787Z,-3.58
2022-12-12T17:15:45.023Z,-3.62
2022-12-12T17:18:01.898Z,-3.62
2022-12-12T17:20:20.006Z,-3.66
2022-12-12T17:22:36.949Z,-3.67
2022-12-12T17:24:54.007Z,-3.69
2022-12-12T17:27:11.068Z,-3.73
2022-12-12T17:29:28.118Z,-3.75
2022-12-12T17:31:45.499Z,-3.76
2022-12-12T17:34:02.972Z,-3.78
2022-12-12T17:36:19.928Z,-3.80
2022-12-12T17:38:37.351Z,-3.84
2022-12-12T17:40:54.824Z,-3.86
2022-12-12T17:43:11.794Z,-3.88
2022-12-12T17:45:28.880Z,-3.89
2022-12-12T17:47:45.880Z,-3.93
2022-12-12T17:50:02.920Z,-3.93
2022-12-12T17:52:19.971Z,-3.98
2022-12-12T17:54:37.058Z,-4.00
2022-12-12T17:56:54.108Z,-3.98
2022-12-12T17:59:11.394Z,-4.02
2022-12-12T18:01:28.540Z,-4.07
2022-12-12T18:03:46.930Z,-4.11
2022-12-12T18:06:04.339Z,-4.12
2022-12-12T18:08:21.364Z,-4.16
2022-12-12T18:10:38.589Z,-4.18
2022-12-12T18:12:55.738Z,-4.18
2022-12-12T18:15:13.761Z,-4.22
2022-12-12T18:17:30.696Z,-4.26
2022-12-12T18:19:47.878Z,-4.22
2022-12-12T18:22:05.931Z,-4.29
2022-12-12T18:24:22.884Z,-4.30
2022-12-12T18:26:39.904Z,-4.36
2022-12-12T18:28:56.897Z,-4.39
2022-12-12T18:31:13.842Z,-4.39
2022-12-12T18:33:30.999Z,-4.41
2022-12-12T18:35:47.955Z,-4.41
2022-12-12T18:38:05.350Z,-4.43
2022-12-12T18:40:22.306Z,-4.44
2022-12-12T18:42:42.310Z,-4.45
2022-12-12T18:44:59.436Z,-4.49
2022-12-12T18:47:17.890Z,-4.50
2022-12-12T18:49:34.819Z,-4.51
2022-12-12T18:51:52.075Z,-4.56
2022-12-12T18:54:14.331Z,-4.57
2022-12-12T18:56:32.426Z,-4.53
2022-12-12T18:58:50.693Z,-4.52
2022-12-12T19:01:07.992Z,-4.57
2022-12-12T19:03:25.850Z,-4.60
2022-12-12T19:05:43.986Z,-4.60
2022-12-12T19:08:01.116Z,-4.66
2022-12-12T19:10:18.112Z,-4.66
2022-12-12T19:12:35.067Z,-4.68
2022-12-12T19:15:15.871Z,-4.71
2022-12-12T19:17:29.051Z,-4.76
2022-12-12T19:19:46.310Z,-4.75
2022-12-12T19:22:18.650Z,-4.75
2022-12-12T19:24:40.671Z,-4.79
2022-12-12T19:26:57.620Z,-4.83
2022-12-12T19:29:14.513Z,-4.84
2022-12-12T19:31:31.452Z,-4.88
2022-12-12T19:33:48.806Z,-4.90
2022-12-12T19:36:06.041Z,-4.94
2022-12-12T19:38:24.753Z,-4.93
2022-12-12T19:40:41.842Z,-4.95
2022-12-12T19:42:59.209Z,-4.93
2022-12-12T19:45:16.211Z,-4.92
2022-12-12T19:47:33.138Z,-4.95
2022-12-12T19:49:50.372Z,-5.03
2022-12-12T19:52:12.292Z,-5.04
2022-12-12T19:54:31.382Z,-5.04
2022-12-12T19:56:48.675Z,-5.06
2022-12-12T19:59:05.903Z,-5.07
2022-12-12T20:01:22.985Z,-5.06
2022-12-12T20:03:40.002Z,-4.99
2022-12-12T20:05:57.008Z,-4.99
2022-12-12T20:08:14.182Z,-5.07
2022-12-12T20:10:31.593Z,-5.14
2022-12-12T20:12:57.931Z,-5.19
2022-12-12T20:15:15.833Z,-5.21
2022-12-12T20:17:33.033Z,-5.23
2022-12-12T20:19:49.973Z,-5.24
2022-12-12T20:22:07.010Z,-5.21
2022-12-12T20:24:25.131Z,-5.25
2022-12-12T20:26:43.193Z,-5.28
2022-12-12T20:29:00.428Z,-5.33
2022-12-12T20:31:17.712Z,-5.34
2022-12-12T20:33:34.650Z,-5.36
2022-12-12T20:35:51.739Z,-5.39
2022-12-12T20:38:08.746Z,-5.39
2022-12-12T20:40:25.955Z,-5.39
2022-12-12T20:42:47.323Z,-5.44
2022-12-12T20:45:07.263Z,-5.47
2022-12-12T20:47:24.296Z,-5.48
2022-12-12T20:49:42.532Z,-5.48
2022-12-12T20:51:59.767Z,-5.51
2022-12-12T20:54:16.783Z,-5.52
2022-12-12T20:56:33.703Z,-5.52
2022-12-12T20:58:50.607Z,-5.54
2022-12-12T21:01:07.724Z,-5.50
2022-12-12T21:03:24.685Z,-5.51
2022-12-12T21:05:42.691Z,-5.49
2022-12-12T21:07:59.784Z,-5.42
2022-12-12T21:10:16.687Z,-5.37
2022-12-12T21:12:34.702Z,-5.35
2022-12-12T21:14:51.754Z,-5.29
2022-12-12T21:17:08.957Z,-5.23
2022-12-12T21:19:25.981Z,-5.14
2022-12-12T21:21:42.847Z,-5.09
2022-12-12T21:23:59.810Z,-5.04
2022-12-12T21:26:19.690Z,-4.99
2022-12-12T21:28:39.483Z,-4.95
2022-12-12T21:30:56.381Z,-4.87
2022-12-12T21:33:13.440Z,-4.84
2022-12-12T21:35:30.411Z,-4.81
2022-12-12T21:37:47.956Z,-4.76
2022-12-12T21:40:06.372Z,-4.72
2022-12-12T21:42:24.392Z,-4.65
2022-12-12T21:44:45.537Z,-4.61
2022-12-12T21:47:02.948Z,-4.58
2022-12-12T21:49:20.793Z,-4.54
2022-12-12T21:51:38.341Z,-4.47
2022-12-12T21:53:55.932Z,-4.42
2022-12-12T21:56:14.367Z,-4.40
2022-12-12T21:58:31.770Z,-4.37
2022-12-12T22:00:50.561Z,-4.36
2022-12-12T22:03:07.578Z,-4.31
2022-12-12T22:05:24.780Z,-4.27
2022-12-12T22:07:42.274Z,-4.22
2022-12-12T22:10:10.323Z,-4.20
2022-12-12T22:12:28.364Z,-4.17
2022-12-12T22:14:45.479Z,-4.12
2022-12-12T22:17:02.586Z,-4.13
2022-12-12T22:19:19.729Z,-4.13
2022-12-12T22:21:36.683Z,-4.05
2022-12-12T22:23:54.013Z,-4.02
2022-12-12T22:26:11.079Z,-3.95
2022-12-12T22:28:28.174Z,-3.92
2022-12-12T22:30:45.434Z,-3.87
2022-12-12T22:33:02.532Z,-3.78
2022-12-12T22:35:19.674Z,-3.72
2022-12-12T22:37:37.145Z,-3.69
2022-12-12T22:39:56.128Z,-3.70
2022-12-12T22:42:13.224Z,-3.71
2022-12-12T22:44:30.529Z,-3.66
2022-12-12T22:46:47.962Z,-3.68
2022-12-12T22:49:04.959Z,-3.64
2022-12-12T22:51:22.428Z,-3.62
2022-12-12T22:53:44.161Z,-3.62
2022-12-12T22:56:01.721Z,-3.58
2022-12-12T22:58:18.824Z,-3.60
2022-12-12T23:00:35.959Z,-3.62
2022-12-12T23:02:52.871Z,-3.63
2022-12-12T23:05:11.158Z,-3.61
2022-12-12T23:07:28.590Z,-3.61
2022-12-12T23:09:45.885Z,-3.58
2022-12-12T23:12:02.943Z,-3.57
2022-12-12T23:14:19.960Z,-3.57
2022-12-12T23:16:37.355Z,-3.61
2022-12-12T23:18:54.706Z,-3.59
2022-12-12T23:21:16.753Z,-3.56
2022-12-12T23:23:34.356Z,-3.51
2022-12-12T23:25:52.399Z,-3.48
2022-12-12T23:28:13.862Z,-3.44
2022-12-12T23:30:31.078Z,-3.45
2022-12-12T23:32:48.408Z,-3.38
2022-12-12T23:35:06.585Z,-3.36
2022-12-12T23:37:24.607Z,-3.34
2022-12-12T23:39:41.630Z,-3.33
2022-12-12T23:41:58.706Z,-3.36
2022-12-12T23:44:15.875Z,-3.35
2022-12-12T23:46:33.074Z,-3.28
2022-12-12T23:48:53.053Z,-3.25
2022-12-12T23:51:10.031Z,-3.22
2022-12-12T23:53:27.222Z,-3.19
2022-12-12T23:55:44.824Z,-3.14
2022-12-12T23:58:02.156Z,-3.09
